Time;durP1;ratioP1;P1;durP2;ratioP2;P2;SDS_P1;SDS_P2;PMS_P1;PMS_P2;Temp;Humidity;BMP_temperature;BMP_pressure;BME280_temperature;BME280_humidity;BME280_pressure;Samples;Min_cycle;Max_cycle;Signal;HPM_P1;HPM_P2
2024/03/23 00:01:05;;;;;;;15.30;2.72;;;30.70;33.50;;;;;;5098694;28;20203;-52
2024/03/23 00:03:33;;;;;;;16.10;4.78;;;30.60;33.60;;;;;;5108668;28;20506;-53
2024/03/23 00:06:00;;;;;;;8.15;2.25;;;30.80;34.20;;;;;;5108179;28;20084;-54
2024/03/23 00:08:29;;;;;;;11.57;2.42;;;30.80;33.90;;;;;;5108034;28;20481;-50
2024/03/23 00:10:56;;;;;;;16.65;2.30;;;31.00;34.00;;;;;;5103722;28;20080;-53
2024/03/23 00:13:23;;;;;;;19.10;2.40;;;31.10;33.50;;;;;;5104073;28;20067;-54
2024/03/23 00:15:51;;;;;;;6.75;1.77;;;31.00;33.00;;;;;;5095966;28;20077;-53
2024/03/23 00:18:23;;;;;;;9.52;1.83;;;30.70;33.90;;;;;;5094742;28;20064;-52
2024/03/23 00:20:54;;;;;;;9.73;2.20;;;30.80;34.90;;;;;;5100553;28;20100;-53
2024/03/23 00:23:22;;;;;;;9.15;2.13;;;30.70;34.00;;;;;;5108354;28;20071;-54
2024/03/23 00:25:49;;;;;;;10.55;2.20;;;30.70;35.20;;;;;;5107394;28;20087;-51
2024/03/23 00:28:17;;;;;;;13.93;2.35;;;30.90;34.30;;;;;;5107355;28;20576;-58
2024/03/23 00:30:44;;;;;;;9.85;2.08;;;30.90;34.00;;;;;;5098852;28;20104;-55
2024/03/23 00:33:11;;;;;;;9.40;2.30;;;30.90;34.50;;;;;;5103603;28;20128;-58
2024/03/23 00:35:41;;;;;;;9.15;2.08;;;30.80;33.60;;;;;;5095787;28;20525;-57
2024/03/23 00:38:09;;;;;;;12.52;2.30;;;30.80;33.90;;;;;;5102719;28;20072;-55
2024/03/23 00:40:36;;;;;;;12.80;2.17;;;30.60;34.30;;;;;;5099783;28;20546;-55
2024/03/23 00:43:04;;;;;;;10.55;2.00;;;30.60;33.60;;;;;;5108268;27;20065;-55
2024/03/23 00:45:31;;;;;;;12.52;2.58;;;30.50;34.10;;;;;;5104176;28;20083;-56
2024/03/23 00:47:59;;;;;;;13.73;2.33;;;30.40;33.60;;;;;;5090576;28;20503;-55
2024/03/23 00:50:26;;;;;;;11.98;2.20;;;30.30;33.40;;;;;;5107014;28;20072;-53
2024/03/23 00:52:53;;;;;;;15.23;2.33;;;30.20;33.80;;;;;;5108318;28;20072;-54
2024/03/23 00:55:20;;;;;;;9.93;2.00;;;30.10;34.10;;;;;;5107170;28;20109;-54
2024/03/23 00:57:46;;;;;;;9.52;2.50;;;30.00;33.90;;;;;;5105197;28;20068;-56
2024/03/23 01:00:13;;;;;;;15.10;2.63;;;29.90;34.20;;;;;;5098868;28;20111;-55
2024/03/23 01:02:40;;;;;;;18.13;2.92;;;29.80;34.80;;;;;;5103422;28;20088;-54
2024/03/23 01:05:06;;;;;;;12.32;2.90;;;29.80;34.30;;;;;;5103292;28;20068;-56
2024/03/23 01:07:33;;;;;;;18.02;2.97;;;29.70;35.70;;;;;;5107768;28;20068;-57
2024/03/23 01:09:59;;;;;;;13.00;2.42;;;29.60;36.00;;;;;;5108200;28;20064;-55
2024/03/23 01:12:26;;;;;;;19.23;2.67;;;29.50;37.00;;;;;;5103045;28;20574;-56
2024/03/23 01:14:52;;;;;;;10.38;2.40;;;29.40;37.00;;;;;;5105702;28;20533;-57
2024/03/23 01:17:18;;;;;;;29.23;3.58;;;29.30;37.30;;;;;;5106478;28;20102;-57
2024/03/23 01:19:45;;;;;;;22.95;3.65;;;29.20;37.80;;;;;;5095394;28;20081;-52
2024/03/23 01:22:12;;;;;;;21.75;6.95;;;29.10;38.00;;;;;;5107783;28;20434;-56
2024/03/23 01:24:38;;;;;;;16.20;2.45;;;29.00;38.30;;;;;;5106847;28;20064;-53
2024/03/23 01:27:05;;;;;;;14.55;2.35;;;28.90;38.50;;;;;;5096373;28;20068;-57
2024/03/23 01:29:31;;;;;;;16.73;2.35;;;28.70;38.70;;;;;;5099120;28;20138;-57
2024/03/23 01:31:59;;;;;;;18.35;2.47;;;28.60;38.40;;;;;;5108196;28;20250;-59
2024/03/23 01:34:25;;;;;;;8.90;2.28;;;28.60;39.00;;;;;;5105982;28;20071;-57
2024/03/23 01:36:52;;;;;;;14.45;2.25;;;28.50;39.40;;;;;;5107016;28;20075;-57
2024/03/23 01:39:18;;;;;;;17.00;2.70;;;28.40;39.90;;;;;;5111632;28;20079;-58
2024/03/23 01:41:45;;;;;;;9.90;2.67;;;28.40;40.50;;;;;;5106134;28;20569;-53
2024/03/23 01:44:11;;;;;;;20.52;2.78;;;28.30;40.70;;;;;;5108984;28;20071;-59
2024/03/23 01:46:38;;;;;;;12.25;2.85;;;28.20;41.30;;;;;;5109551;28;20121;-59
2024/03/23 01:49:08;;;;;;;23.88;4.05;;;28.10;41.40;;;;;;5109345;28;20072;-58
2024/03/23 01:51:35;;;;;;;28.75;4.80;;;28.10;43.10;;;;;;5107167;28;20060;-60
2024/03/23 01:54:06;;;;;;;33.60;4.50;;;28.00;44.70;;;;;;5106660;28;20486;-59
2024/03/23 01:56:35;;;;;;;21.13;3.10;;;27.90;45.60;;;;;;5112012;28;20076;-61
2024/03/23 01:59:03;;;;;;;22.75;2.88;;;27.80;44.90;;;;;;5109038;28;20095;-60
2024/03/23 02:01:30;;;;;;;19.45;3.38;;;27.60;44.30;;;;;;5111370;28;20104;-60
2024/03/23 02:03:57;;;;;;;19.08;3.70;;;27.60;44.70;;;;;;5102783;28;20083;-60
2024/03/23 02:06:25;;;;;;;17.40;3.35;;;27.50;44.80;;;;;;5112651;28;20099;-61
2024/03/23 02:08:51;;;;;;;12.88;2.40;;;27.40;45.00;;;;;;5108942;28;20525;-60
2024/03/23 02:11:18;;;;;;;21.75;2.83;;;27.30;45.20;;;;;;5109793;28;20404;-60
2024/03/23 02:13:44;;;;;;;18.52;2.90;;;27.30;45.70;;;;;;5108323;28;20159;-59
2024/03/23 02:16:11;;;;;;;14.07;3.22;;;27.20;45.70;;;;;;5099882;28;20067;-60
2024/03/23 02:18:37;;;;;;;26.58;2.72;;;27.10;46.20;;;;;;5104927;28;20068;-59
2024/03/23 02:21:04;;;;;;;29.42;3.65;;;27.00;46.50;;;;;;5103681;28;20100;-60
2024/03/23 02:23:31;;;;;;;24.83;3.40;;;26.90;46.70;;;;;;5100174;28;20197;-61
2024/03/23 02:25:57;;;;;;;33.45;3.60;;;26.80;46.80;;;;;;5109096;28;20080;-60
2024/03/23 02:28:24;;;;;;;38.95;3.38;;;26.70;46.60;;;;;;5103267;28;20153;-61
2024/03/23 02:30:52;;;;;;;40.22;4.25;;;26.70;46.40;;;;;;5103720;28;20160;-58
2024/03/23 02:33:18;;;;;;;34.78;3.55;;;26.60;46.50;;;;;;5106873;28;20538;-59
2024/03/23 02:35:46;;;;;;;30.48;4.05;;;26.60;46.10;;;;;;5110198;28;20064;-58
2024/03/23 02:38:12;;;;;;;28.55;3.83;;;26.50;46.10;;;;;;5110842;28;20563;-58
2024/03/23 02:40:39;;;;;;;29.17;3.60;;;26.40;45.40;;;;;;5109474;28;20092;-60
2024/03/23 02:43:05;;;;;;;33.03;3.90;;;26.30;45.40;;;;;;5106904;28;20079;-60
2024/03/23 02:45:32;;;;;;;34.25;3.33;;;26.20;45.50;;;;;;5110478;28;20072;-60
2024/03/23 02:47:58;;;;;;;30.38;3.08;;;26.20;45.70;;;;;;5102861;28;20100;-61
2024/03/23 02:50:25;;;;;;;26.40;3.17;;;26.10;45.90;;;;;;5108665;28;20538;-61
2024/03/23 02:52:51;;;;;;;27.45;3.33;;;26.10;46.30;;;;;;5109135;28;20074;-61
2024/03/23 02:55:17;;;;;;;16.25;3.10;;;26.00;45.90;;;;;;5110953;28;20186;-60
2024/03/23 02:57:45;;;;;;;20.55;3.42;;;25.90;46.10;;;;;;5111128;28;20067;-61
2024/03/23 03:00:12;;;;;;;29.85;4.00;;;25.80;46.40;;;;;;5108653;28;20100;-61
2024/03/23 03:02:39;;;;;;;41.03;3.92;;;25.70;46.60;;;;;;5106385;27;20586;-61
2024/03/23 03:05:06;;;;;;;42.80;3.83;;;25.70;47.00;;;;;;5110258;28;20068;-61
2024/03/23 03:07:33;;;;;;;27.10;4.20;;;25.60;47.00;;;;;;5105339;28;20515;-60
2024/03/23 03:09:59;;;;;;;27.33;4.00;;;25.60;47.00;;;;;;5108321;28;20078;-58
2024/03/23 03:12:26;;;;;;;28.02;4.53;;;25.50;46.80;;;;;;5105879;28;20061;-58
2024/03/23 03:14:53;;;;;;;25.58;3.58;;;25.50;46.70;;;;;;5109198;28;20061;-59
2024/03/23 03:17:20;;;;;;;29.73;4.53;;;25.40;46.80;;;;;;5109893;28;20079;-60
2024/03/23 03:19:46;;;;;;;30.67;3.58;;;25.40;46.90;;;;;;5109335;28;20123;-61
2024/03/23 03:22:13;;;;;;;32.42;4.03;;;25.30;47.00;;;;;;5110282;28;20587;-59
2024/03/23 03:24:39;;;;;;;34.45;4.38;;;25.20;47.20;;;;;;5107209;28;20075;-60
2024/03/23 03:27:06;;;;;;;44.15;5.07;;;25.20;47.60;;;;;;5109346;28;20110;-60
2024/03/23 03:29:35;;;;;;;31.40;4.13;;;25.10;47.70;;;;;;5104935;28;20102;-60
2024/03/23 03:32:03;;;;;;;35.03;4.53;;;25.00;47.90;;;;;;5101585;27;20112;-60
2024/03/23 03:34:30;;;;;;;31.20;5.07;;;25.00;47.90;;;;;;5111945;27;20459;-61
2024/03/23 03:36:57;;;;;;;28.48;4.93;;;24.90;48.10;;;;;;5121505;27;20532;-60
2024/03/23 03:39:24;;;;;;;42.10;5.70;;;24.90;48.00;;;;;;5104534;27;20490;-60
2024/03/23 03:41:51;;;;;;;34.08;4.45;;;24.80;48.10;;;;;;5111263;27;20171;-60
2024/03/23 03:44:17;;;;;;;27.52;4.25;;;24.80;48.00;;;;;;5105098;27;20075;-60
2024/03/23 03:46:44;;;;;;;39.42;5.05;;;24.80;47.80;;;;;;5101293;27;20065;-60
2024/03/23 03:49:10;;;;;;;21.33;4.15;;;24.80;47.70;;;;;;5105613;27;20079;-60
2024/03/23 03:51:37;;;;;;;24.33;4.13;;;24.80;47.40;;;;;;5108588;27;20463;-61
2024/03/23 03:54:03;;;;;;;24.48;5.45;;;24.70;47.10;;;;;;5105999;27;20061;-60
2024/03/23 03:56:30;;;;;;;24.67;4.90;;;24.70;46.80;;;;;;5096535;27;20076;-60
2024/03/23 03:58:56;;;;;;;25.13;4.50;;;24.70;47.10;;;;;;5108481;27;20067;-60
2024/03/23 04:01:23;;;;;;;25.25;3.92;;;24.70;48.00;;;;;;5109291;27;20096;-60
2024/03/23 04:03:49;;;;;;;19.85;2.92;;;24.70;47.30;;;;;;5101128;28;20083;-60
2024/03/23 04:06:22;;;;;;;19.67;2.47;;;24.70;47.20;;;;;;5109221;27;20079;-60
2024/03/23 04:08:48;;;;;;;9.25;2.20;;;24.60;47.20;;;;;;5109895;27;20076;-60
2024/03/23 04:11:15;;;;;;;15.50;2.53;;;24.60;47.50;;;;;;5111370;27;20076;-60
2024/03/23 04:13:42;;;;;;;16.23;2.70;;;24.50;47.80;;;;;;5102694;27;20064;-60
2024/03/23 04:16:11;;;;;;;22.58;3.10;;;24.50;47.90;;;;;;5110291;27;20076;-59
2024/03/23 04:18:38;;;;;;;11.38;2.78;;;24.40;48.00;;;;;;5112976;27;20091;-59
2024/03/23 04:21:04;;;;;;;11.75;2.60;;;24.30;48.30;;;;;;5105363;27;20606;-60
2024/03/23 04:23:31;;;;;;;15.35;2.38;;;24.30;48.20;;;;;;5106382;27;20064;-60
2024/03/23 04:26:05;;;;;;;9.50;2.40;;;24.10;48.70;;;;;;5110601;27;20117;-61
2024/03/23 04:28:31;;;;;;;9.40;2.72;;;24.10;49.10;;;;;;5107257;27;20119;-62
2024/03/23 04:30:57;;;;;;;19.73;2.60;;;24.00;49.60;;;;;;5109764;27;20545;-61
2024/03/23 04:33:24;;;;;;;19.00;2.95;;;24.00;49.70;;;;;;5102750;27;20072;-61
2024/03/23 04:35:51;;;;;;;16.23;2.65;;;23.90;49.90;;;;;;5106304;27;21526;-60
2024/03/23 04:38:17;;;;;;;23.23;2.78;;;23.80;50.60;;;;;;5102467;28;20210;-60
2024/03/23 04:40:44;;;;;;;11.70;2.78;;;23.70;50.80;;;;;;5112439;27;20170;-60
2024/03/23 04:43:10;;;;;;;13.13;2.25;;;23.60;51.60;;;;;;5109179;27;20064;-60
2024/03/23 04:45:37;;;;;;;12.50;2.20;;;23.50;50.80;;;;;;5106411;27;20088;-59
2024/03/23 04:48:03;;;;;;;11.18;2.33;;;23.50;50.20;;;;;;5101788;27;20160;-60
2024/03/23 04:50:30;;;;;;;14.75;2.30;;;23.50;50.40;;;;;;5109075;27;20080;-58
2024/03/23 04:52:56;;;;;;;17.35;2.33;;;23.40;50.40;;;;;;5103933;27;20068;-59
2024/03/23 04:55:23;;;;;;;12.10;2.50;;;23.30;51.30;;;;;;5108704;27;20121;-61
2024/03/23 04:57:50;;;;;;;15.63;2.85;;;23.20;51.00;;;;;;5116513;27;20121;-59
2024/03/23 05:00:19;;;;;;;17.73;3.13;;;23.20;51.20;;;;;;5099625;28;20099;-59
2024/03/23 05:02:46;;;;;;;18.13;3.40;;;23.20;51.20;;;;;;5120762;27;20510;-59
2024/03/23 05:05:12;;;;;;;19.05;3.45;;;23.10;52.20;;;;;;5101973;27;20094;-60
2024/03/23 05:07:39;;;;;;;10.18;2.63;;;23.10;53.40;;;;;;5106563;28;20079;-61
2024/03/23 05:10:10;;;;;;;22.85;3.40;;;23.00;53.20;;;;;;5111153;27;20064;-60
2024/03/23 05:12:39;;;;;;;20.88;3.08;;;22.90;52.70;;;;;;5107720;28;20084;-60
2024/03/23 05:15:07;;;;;;;20.20;3.75;;;22.90;52.70;;;;;;5104949;28;20071;-61
2024/03/23 05:17:34;;;;;;;30.33;4.40;;;22.90;52.40;;;;;;5097046;28;20080;-60
2024/03/23 05:20:01;;;;;;;17.33;3.88;;;22.90;52.80;;;;;;5108500;28;20113;-61
2024/03/23 05:22:27;;;;;;;11.95;3.78;;;22.90;52.90;;;;;;5118084;28;20074;-61
2024/03/23 05:24:54;;;;;;;18.13;3.95;;;22.80;52.50;;;;;;5106548;28;20068;-61
2024/03/23 05:27:20;;;;;;;19.67;4.63;;;22.80;52.20;;;;;;5103755;28;20064;-60
2024/03/23 05:29:47;;;;;;;18.70;4.60;;;22.70;52.10;;;;;;5103874;28;20072;-60
2024/03/23 05:32:13;;;;;;;13.93;4.13;;;22.70;52.50;;;;;;5114795;28;20161;-60
2024/03/23 05:34:40;;;;;;;16.15;4.97;;;22.60;53.40;;;;;;5108844;28;20068;-60
2024/03/23 05:37:06;;;;;;;27.73;5.07;;;22.50;52.80;;;;;;5116805;28;20068;-59
2024/03/23 05:39:33;;;;;;;18.65;4.70;;;22.50;52.30;;;;;;5111696;27;20122;-61
2024/03/23 05:41:59;;;;;;;22.02;4.85;;;22.40;52.70;;;;;;5095872;28;20104;-61
2024/03/23 05:44:25;;;;;;;19.05;4.68;;;22.40;53.30;;;;;;5107327;28;20071;-61
2024/03/23 05:46:52;;;;;;;29.45;4.68;;;22.30;54.10;;;;;;5110271;28;20160;-62
2024/03/23 05:49:18;;;;;;;35.67;17.63;;;22.20;53.70;;;;;;5104560;28;20064;-62
2024/03/23 05:51:45;;;;;;;39.67;20.95;;;22.20;54.20;;;;;;5112154;28;20184;-61
2024/03/23 05:54:11;;;;;;;37.15;19.52;;;22.20;53.50;;;;;;5118178;28;20115;-61
2024/03/23 05:56:37;;;;;;;41.72;15.25;;;22.30;52.80;;;;;;5116320;27;20072;-63
2024/03/23 05:59:04;;;;;;;33.92;6.82;;;22.30;52.20;;;;;;5101399;28;20152;-62
2024/03/23 06:01:32;;;;;;;28.33;7.13;;;22.30;52.30;;;;;;5112776;28;20091;-62
2024/03/23 06:04:01;;;;;;;22.92;6.40;;;22.30;52.10;;;;;;5098381;27;20069;-62
2024/03/23 06:06:30;;;;;;;36.25;5.30;;;22.30;51.50;;;;;;5103764;28;20189;-61
2024/03/23 06:08:56;;;;;;;21.98;4.80;;;22.40;51.10;;;;;;5110696;28;20071;-61
2024/03/23 06:11:23;;;;;;;18.48;4.07;;;22.40;50.40;;;;;;5107482;27;20076;-61
2024/03/23 06:13:49;;;;;;;37.45;20.45;;;22.40;49.80;;;;;;5105172;28;20160;-61
2024/03/23 06:16:16;;;;;;;18.58;4.45;;;22.40;50.00;;;;;;5094372;28;20064;-61
2024/03/23 06:18:42;;;;;;;15.23;4.25;;;22.40;50.60;;;;;;5103782;27;20068;-61
2024/03/23 06:21:14;;;;;;;13.70;4.40;;;22.30;50.40;;;;;;5104970;28;20096;-61
2024/03/23 06:23:41;;;;;;;12.88;3.97;;;22.30;50.20;;;;;;5113771;27;20536;-61
2024/03/23 06:26:08;;;;;;;15.43;4.28;;;22.30;50.10;;;;;;5116164;27;20510;-61
2024/03/23 06:28:35;;;;;;;15.48;4.35;;;22.30;49.80;;;;;;5104197;27;20102;-61
2024/03/23 06:31:02;;;;;;;18.25;5.00;;;22.30;49.80;;;;;;5106758;27;20165;-61
2024/03/23 06:33:28;;;;;;;12.82;5.55;;;22.30;50.00;;;;;;5108548;27;20083;-61
2024/03/23 06:35:55;;;;;;;21.48;5.18;;;22.20;50.00;;;;;;5107314;27;20076;-61
2024/03/23 06:38:21;;;;;;;18.58;4.57;;;22.10;50.70;;;;;;5116801;27;20141;-61
2024/03/23 06:40:50;;;;;;;18.55;5.00;;;22.10;51.00;;;;;;5114744;27;20108;-61
2024/03/23 06:43:17;;;;;;;18.80;4.88;;;22.10;51.70;;;;;;5103395;27;20120;-61
2024/03/23 06:45:43;;;;;;;19.35;4.85;;;22.00;52.00;;;;;;5109809;27;20087;-61
2024/03/23 06:48:09;;;;;;;10.85;4.30;;;22.00;52.30;;;;;;5109642;27;20474;-61
2024/03/23 06:50:36;;;;;;;13.05;4.53;;;21.90;52.90;;;;;;5109514;27;20084;-61
2024/03/23 06:53:05;;;;;;;14.18;4.95;;;21.80;53.30;;;;;;5111822;27;20060;-61
2024/03/23 06:55:31;;;;;;;20.27;4.85;;;21.70;53.70;;;;;;5111033;27;20079;-62
2024/03/23 06:57:58;;;;;;;15.18;4.80;;;21.70;53.70;;;;;;5105229;27;20065;-60
2024/03/23 07:00:25;;;;;;;15.30;4.18;;;21.60;53.90;;;;;;5105162;27;20203;-61
2024/03/23 07:02:52;;;;;;;13.75;3.88;;;21.60;54.30;;;;;;5112534;27;20076;-61
2024/03/23 07:05:18;;;;;;;15.63;3.50;;;21.50;54.50;;;;;;5109720;27;20376;-61
2024/03/23 07:07:45;;;;;;;15.68;4.05;;;21.60;54.60;;;;;;5109383;27;20505;-61
2024/03/23 07:10:11;;;;;;;20.25;3.45;;;21.50;54.70;;;;;;5114937;27;20084;-61
2024/03/23 07:12:38;;;;;;;11.77;3.80;;;21.50;54.60;;;;;;5130778;27;20421;-61
2024/03/23 07:15:05;;;;;;;13.10;3.53;;;21.60;54.60;;;;;;5111006;27;20064;-61
2024/03/23 07:17:32;;;;;;;10.43;3.58;;;21.60;54.70;;;;;;5112589;27;20072;-61
2024/03/23 07:20:01;;;;;;;11.93;3.00;;;21.50;54.40;;;;;;5115228;27;20075;-62
2024/03/23 07:22:27;;;;;;;8.50;2.75;;;21.50;54.30;;;;;;5108591;27;20064;-61
2024/03/23 07:24:54;;;;;;;14.23;2.83;;;21.50;54.10;;;;;;5106912;27;20574;-61
2024/03/23 07:27:20;;;;;;;12.80;3.25;;;21.60;54.40;;;;;;5106884;27;20147;-61
2024/03/23 07:29:46;;;;;;;13.38;2.90;;;21.60;54.40;;;;;;5108517;27;20081;-61
2024/03/23 07:32:13;;;;;;;6.85;2.80;;;21.60;54.30;;;;;;5102831;27;20109;-59
2024/03/23 07:34:39;;;;;;;11.85;3.10;;;21.60;53.90;;;;;;5103310;27;20082;-59
2024/03/23 07:37:06;;;;;;;10.10;2.75;;;21.60;53.80;;;;;;5115067;27;20095;-59
2024/03/23 07:39:33;;;;;;;7.47;2.50;;;21.60;53.70;;;;;;5111437;27;20457;-56
2024/03/23 07:42:00;;;;;;;17.00;3.55;;;21.60;53.60;;;;;;5110305;27;20122;-60
2024/03/23 07:44:26;;;;;;;9.55;2.80;;;21.60;53.30;;;;;;5109561;27;20124;-59
2024/03/23 07:46:53;;;;;;;14.38;3.20;;;21.60;53.40;;;;;;5107787;27;20115;-59
2024/03/23 07:49:19;;;;;;;9.80;3.40;;;21.60;53.50;;;;;;5112505;27;20225;-61
2024/03/23 07:51:45;;;;;;;13.07;3.17;;;21.60;53.40;;;;;;5106176;27;20124;-60
2024/03/23 07:54:12;;;;;;;10.77;2.80;;;21.50;53.40;;;;;;5109606;27;20072;-60
2024/03/23 07:56:38;;;;;;;8.07;2.50;;;21.50;53.50;;;;;;5105816;27;20526;-60
2024/03/23 07:59:05;;;;;;;14.95;2.92;;;21.50;53.70;;;;;;5107907;27;20072;-60
2024/03/23 08:01:31;;;;;;;12.60;2.78;;;21.60;53.60;;;;;;5108061;27;20190;-59
2024/03/23 08:03:58;;;;;;;8.35;3.05;;;21.60;53.90;;;;;;5113747;27;20487;-59
2024/03/23 08:06:24;;;;;;;8.40;2.67;;;21.70;53.90;;;;;;5103061;28;20080;-60
2024/03/23 08:08:59;;;;;;;11.13;2.90;;;21.70;53.50;;;;;;5105074;27;20112;-60
2024/03/23 08:11:30;;;;;;;9.30;2.40;;;21.70;53.20;;;;;;5110981;27;20079;-60
2024/03/23 08:13:58;;;;;;;6.55;2.78;;;21.60;54.00;;;;;;5102699;27;20090;-60
2024/03/23 08:16:25;;;;;;;15.50;7.55;;;21.40;54.40;;;;;;5109370;27;20120;-59
2024/03/23 08:18:57;;;;;;;10.93;6.95;;;21.20;54.90;;;;;;5119225;27;20070;-60
2024/03/23 08:21:26;;;;;;;14.65;7.00;;;21.10;55.00;;;;;;5111787;27;20125;-60
2024/03/23 08:23:52;;;;;;;10.43;7.07;;;21.00;55.20;;;;;;5108957;27;20086;-59
2024/03/23 08:26:19;;;;;;;10.25;7.10;;;21.00;55.20;;;;;;5118949;27;20087;-60
2024/03/23 08:28:45;;;;;;;11.80;2.80;;;21.00;55.40;;;;;;5119045;27;20095;-61
2024/03/23 08:31:14;;;;;;;12.73;2.83;;;20.90;55.30;;;;;;5111773;27;20493;-60
2024/03/23 08:33:43;;;;;;;8.27;2.92;;;20.90;55.60;;;;;;5103022;27;20072;-60
2024/03/23 08:36:14;;;;;;;8.60;2.60;;;20.80;55.60;;;;;;5109750;27;20965;-60
2024/03/23 08:38:41;;;;;;;12.90;2.80;;;20.80;55.70;;;;;;5107188;27;20083;-60
2024/03/23 08:41:09;;;;;;;7.45;2.58;;;20.80;55.60;;;;;;5110706;27;20095;-59
2024/03/23 08:43:42;;;;;;;7.53;2.30;;;20.70;55.70;;;;;;5104754;27;20072;-59
2024/03/23 08:46:13;;;;;;;7.35;2.47;;;20.70;55.50;;;;;;5112973;27;20104;-60
2024/03/23 08:48:45;;;;;;;13.32;2.70;;;20.70;55.50;;;;;;5112607;27;20095;-59
2024/03/23 08:51:13;;;;;;;10.60;2.53;;;20.60;55.90;;;;;;5119280;27;20067;-60
2024/03/23 08:53:40;;;;;;;6.78;2.30;;;20.60;55.60;;;;;;5107933;27;20075;-59
2024/03/23 08:56:08;;;;;;;7.65;2.20;;;20.60;55.40;;;;;;5124453;27;20064;-59
2024/03/23 08:58:35;;;;;;;9.07;2.47;;;20.70;55.10;;;;;;5115453;27;20174;-59
2024/03/23 09:01:15;;;;;;;8.88;2.42;;;20.70;54.80;;;;;;5117297;27;20095;-59
2024/03/23 09:03:42;;;;;;;12.25;2.47;;;20.70;54.40;;;;;;5118909;27;20068;-60
2024/03/23 09:06:10;;;;;;;8.10;2.25;;;20.60;54.30;;;;;;5109846;28;20102;-60
2024/03/23 09:08:36;;;;;;;8.38;2.08;;;20.70;54.00;;;;;;5115393;28;20071;-59
2024/03/23 09:11:10;;;;;;;11.10;2.88;;;20.70;53.80;;;;;;5119163;27;20095;-59
2024/03/23 09:13:38;;;;;;;8.02;2.55;;;20.60;53.50;;;;;;5119743;28;20078;-60
2024/03/23 09:16:05;;;;;;;35.95;17.98;;;20.60;53.30;;;;;;5123192;27;20087;-59
2024/03/23 09:18:35;;;;;;;32.85;17.05;;;20.70;52.90;;;;;;5120604;27;20071;-60
2024/03/23 09:21:11;;;;;;;8.70;2.10;;;20.60;52.10;;;;;;5117704;28;20092;-60
2024/03/23 09:23:37;;;;;;;4.63;2.23;;;20.60;52.30;;;;;;5120916;28;20068;-60
2024/03/23 09:26:04;;;;;;;9.02;2.15;;;20.60;51.90;;;;;;5110582;27;20129;-60
2024/03/23 09:28:31;;;;;;;9.27;2.08;;;20.60;51.10;;;;;;5121099;27;20153;-60
2024/03/23 09:31:08;;;;;;;5.28;2.35;;;20.60;50.50;;;;;;5121642;27;20096;-59
2024/03/23 09:33:37;;;;;;;9.70;2.10;;;20.60;50.40;;;;;;5122579;27;20083;-59
2024/03/23 09:36:08;;;;;;;7.30;2.28;;;20.60;50.00;;;;;;5108390;28;20072;-59
2024/03/23 09:38:34;;;;;;;5.45;1.90;;;20.60;49.00;;;;;;5115734;28;20093;-59
2024/03/23 09:41:06;;;;;;;5.05;2.00;;;20.60;48.20;;;;;;5114763;27;20103;-57
2024/03/23 09:43:33;;;;;;;8.75;2.20;;;20.70;46.60;;;;;;5115204;27;20201;-59
2024/03/23 09:45:59;;;;;;;11.38;2.63;;;20.80;46.30;;;;;;5111299;28;20440;-62
2024/03/23 09:48:26;;;;;;;7.40;2.20;;;20.90;46.60;;;;;;5123922;28;20175;-60
2024/03/23 09:50:52;;;;;;;8.85;2.40;;;20.90;46.40;;;;;;5123291;28;20133;-60
2024/03/23 09:53:19;;;;;;;6.50;1.92;;;20.90;46.30;;;;;;5125106;28;20064;-60
2024/03/23 09:55:46;;;;;;;6.15;1.88;;;20.90;46.10;;;;;;5118354;28;20079;-60
2024/03/23 09:58:18;;;;;;;8.32;1.95;;;20.90;46.40;;;;;;5122461;27;20630;-60
2024/03/23 10:00:45;;;;;;;7.18;1.65;;;20.90;46.40;;;;;;5108290;27;20115;-59
2024/03/23 10:03:11;;;;;;;6.43;2.08;;;20.80;46.70;;;;;;5118375;27;20072;-59
2024/03/23 10:05:38;;;;;;;4.93;1.65;;;20.80;47.00;;;;;;5111674;27;20064;-58
2024/03/23 10:08:16;;;;;;;4.93;1.63;;;20.80;46.80;;;;;;5126240;27;20068;-58
2024/03/23 10:10:44;;;;;;;12.20;1.73;;;20.80;46.40;;;;;;5137202;27;20115;-58
2024/03/23 10:13:12;;;;;;;8.02;1.83;;;20.80;46.40;;;;;;5138565;27;20104;-58
2024/03/23 10:15:39;;;;;;;8.57;2.03;;;20.70;46.20;;;;;;5118087;27;20079;-57
2024/03/23 10:18:28;;;;;;;6.03;1.60;;;20.70;46.50;;;;;;5120085;27;20138;-58
2024/03/23 10:21:07;;;;;;;21.17;2.17;;;20.70;46.50;;;;;;5112741;27;20142;-59
2024/03/23 10:23:34;;;;;;;8.20;2.10;;;20.60;45.90;;;;;;5127087;27;20236;-59
2024/03/23 10:26:23;;;;;;;6.38;1.90;;;20.60;45.20;;;;;;5112766;27;20491;-59
2024/03/23 10:28:58;;;;;;;4.38;1.50;;;20.60;45.80;;;;;;5123276;27;20079;-59
2024/03/23 10:31:25;;;;;;;6.30;2.00;;;20.50;45.40;;;;;;5117848;27;20107;-59
2024/03/23 10:33:54;;;;;;;9.38;2.10;;;20.50;45.80;;;;;;5127008;27;20509;-59
2024/03/23 10:36:27;;;;;;;6.35;1.55;;;20.50;46.00;;;;;;5119740;27;20117;-59
2024/03/23 10:38:55;;;;;;;3.47;1.70;;;20.40;45.50;;;;;;5117739;27;20076;-58
2024/03/23 10:41:21;;;;;;;7.78;1.90;;;20.40;46.40;;;;;;5123623;27;20102;-59
2024/03/23 10:43:49;;;;;;;4.35;1.60;;;20.40;46.40;;;;;;5124187;27;20101;-58
2024/03/23 10:46:16;;;;;;;4.68;1.55;;;20.30;44.90;;;;;;5118329;27;20067;-62
2024/03/23 10:48:44;;;;;;;12.27;1.98;;;20.30;44.70;;;;;;5119094;27;20079;-58
2024/03/23 10:51:11;;;;;;;9.45;1.48;;;20.20;44.30;;;;;;5115170;27;20072;-58
2024/03/23 10:53:38;;;;;;;4.35;1.50;;;20.30;44.50;;;;;;5115902;27;20124;-56
2024/03/23 10:56:05;;;;;;;4.43;1.70;;;20.30;44.10;;;;;;5121875;27;20068;-58
2024/03/23 10:58:38;;;;;;;6.63;2.00;;;20.30;43.50;;;;;;5114884;27;20068;-58
2024/03/23 11:01:04;;;;;;;4.90;1.67;;;20.40;43.70;;;;;;5120898;27;20099;-58
2024/03/23 11:03:38;;;;;;;8.27;1.77;;;20.40;43.70;;;;;;5115640;27;20070;-58
2024/03/23 11:06:06;;;;;;;4.75;1.60;;;20.40;44.10;;;;;;5118975;27;20075;-58
2024/03/23 11:08:40;;;;;;;8.40;1.90;;;20.50;44.70;;;;;;5116779;27;20302;-58
2024/03/23 11:11:18;;;;;;;8.70;1.90;;;20.50;45.10;;;;;;5112357;27;20078;-59
2024/03/23 11:13:47;;;;;;;7.15;2.05;;;20.50;45.60;;;;;;5118179;27;20075;-59
2024/03/23 11:16:24;;;;;;;10.40;1.88;;;20.40;45.90;;;;;;5109606;27;20105;-59
2024/03/23 11:18:52;;;;;;;9.50;2.20;;;20.50;45.80;;;;;;5112123;27;20072;-57
2024/03/23 11:21:55;;;;;;;11.60;1.95;;;20.40;45.20;;;;;;5124436;27;20123;-56
2024/03/23 11:24:22;;;;;;;12.02;2.40;;;20.50;44.50;;;;;;5119245;27;20095;-57
2024/03/23 11:26:49;;;;;;;6.15;1.48;;;20.60;44.40;;;;;;5118626;27;20075;-59
2024/03/23 11:29:18;;;;;;;10.45;1.95;;;20.50;44.10;;;;;;5128138;27;20071;-59
2024/03/23 11:31:51;;;;;;;8.02;1.60;;;20.60;43.50;;;;;;5120345;27;20210;-59
2024/03/23 11:34:19;;;;;;;4.95;1.73;;;20.60;43.50;;;;;;5118944;27;20064;-59
2024/03/23 11:36:46;;;;;;;7.18;1.70;;;20.70;43.30;;;;;;5123979;27;20071;-59
2024/03/23 11:39:20;;;;;;;5.90;1.45;;;20.70;43.20;;;;;;5124103;27;20068;-60
2024/03/23 11:41:52;;;;;;;8.32;1.50;;;20.70;42.40;;;;;;5123435;27;20144;-59
2024/03/23 11:44:25;;;;;;;9.85;2.00;;;20.80;42.10;;;;;;5110062;27;20079;-59
2024/03/23 11:46:52;;;;;;;5.65;1.77;;;20.80;41.90;;;;;;5123854;27;20078;-59
2024/03/23 11:49:27;;;;;;;7.63;1.90;;;20.80;41.20;;;;;;5116560;27;20064;-58
2024/03/23 11:51:55;;;;;;;10.75;1.92;;;21.00;40.90;;;;;;5123906;27;20059;-59
2024/03/23 11:54:22;;;;;;;6.18;1.63;;;21.00;41.00;;;;;;5116828;27;20147;-59
2024/03/23 11:56:57;;;;;;;12.13;1.50;;;21.00;41.30;;;;;;5125485;27;20068;-57
2024/03/23 11:59:38;;;;;;;10.77;1.90;;;21.00;41.70;;;;;;5120128;27;20074;-58
2024/03/23 12:02:14;;;;;;;8.25;1.90;;;21.00;41.70;;;;;;5115630;27;20538;-59
2024/03/23 12:04:41;;;;;;;9.50;1.60;;;21.00;41.60;;;;;;5119017;27;20413;-59
2024/03/23 12:07:21;;;;;;;9.85;1.60;;;21.00;41.30;;;;;;5122644;27;20079;-59
2024/03/23 12:10:03;;;;;;;10.05;1.80;;;21.00;41.50;;;;;;5118361;27;20407;-59
2024/03/23 12:12:30;;;;;;;17.42;1.63;;;21.00;41.50;;;;;;5116395;27;20077;-57
2024/03/23 12:15:08;;;;;;;10.25;1.83;;;20.90;41.00;;;;;;5118756;27;20560;-58
2024/03/23 12:17:35;;;;;;;8.05;1.70;;;20.80;41.90;;;;;;5116491;27;20441;-59
2024/03/23 12:20:02;;;;;;;8.55;2.10;;;20.70;42.70;;;;;;5112220;27;20080;-59
2024/03/23 12:22:32;;;;;;;6.63;1.90;;;20.60;42.40;;;;;;5111599;27;20100;-59
2024/03/23 12:24:58;;;;;;;11.63;1.65;;;20.60;42.40;;;;;;5115637;27;20067;-59
2024/03/23 12:27:25;;;;;;;9.18;1.80;;;20.70;41.80;;;;;;5120662;27;20202;-60
2024/03/23 12:29:51;;;;;;;7.15;1.45;;;20.80;41.60;;;;;;5120287;27;20102;-59
2024/03/23 12:32:18;;;;;;;12.98;1.77;;;20.90;42.10;;;;;;5119979;27;20108;-59
2024/03/23 12:34:44;;;;;;;14.82;1.63;;;21.00;41.70;;;;;;5117511;27;20063;-58
2024/03/23 12:37:12;;;;;;;9.50;1.00;;;21.10;41.20;;;;;;5113313;27;20567;-60
2024/03/23 12:39:38;;;;;;;8.73;1.38;;;21.20;41.90;;;;;;5115457;27;20071;-60
2024/03/23 12:42:05;;;;;;;8.77;1.67;;;21.10;42.30;;;;;;5120993;27;20189;-59
2024/03/23 12:44:32;;;;;;;10.63;1.48;;;20.90;43.50;;;;;;5127385;27;20079;-59